sensor_id;sensor_type;location;lat;lon;timestamp;P1;durP1;ratioP1;P2;durP2;ratioP2
78346;SDS011;67803;41.330;69.282;2023-11-19T00:02:10;47.75;;;12.55;;
78346;SDS011;67803;41.330;69.282;2023-11-19T00:04:41;36.30;;;11.45;;
78346;SDS011;67803;41.330;69.282;2023-11-19T00:07:12;40.00;;;12.57;;
78346;SDS011;67803;41.330;69.282;2023-11-19T00:09:44;31.98;;;11.32;;
78346;SDS011;67803;41.330;69.282;2023-11-19T00:12:15;39.95;;;12.63;;
78346;SDS011;67803;41.330;69.282;2023-11-19T00:14:46;39.20;;;11.90;;
78346;SDS011;67803;41.330;69.282;2023-11-19T00:17:17;40.28;;;11.35;;
78346;SDS011;67803;41.330;69.282;2023-11-19T00:19:48;38.33;;;11.77;;
78346;SDS011;67803;41.330;69.282;2023-11-19T00:22:21;43.90;;;19.10;;
78346;SDS011;67803;41.330;69.282;2023-11-19T00:24:52;36.28;;;16.13;;
78346;SDS011;67803;41.330;69.282;2023-11-19T00:27:23;56.22;;;19.55;;
78346;SDS011;67803;41.330;69.282;2023-11-19T00:29:54;49.15;;;20.25;;
78346;SDS011;67803;41.330;69.282;2023-11-19T00:32:25;50.80;;;18.40;;
78346;SDS011;67803;41.330;69.282;2023-11-19T00:34:56;53.72;;;19.77;;
78346;SDS011;67803;41.330;69.282;2023-11-19T00:37:27;63.85;;;34.13;;
78346;SDS011;67803;41.330;69.282;2023-11-19T00:39:58;49.45;;;19.95;;
78346;SDS011;67803;41.330;69.282;2023-11-19T00:42:29;54.20;;;26.15;;
78346;SDS011;67803;41.330;69.282;2023-11-19T00:45:00;66.10;;;28.50;;
78346;SDS011;67803;41.330;69.282;2023-11-19T00:47:31;55.88;;;25.33;;
78346;SDS011;67803;41.330;69.282;2023-11-19T00:50:02;48.97;;;19.15;;
78346;SDS011;67803;41.330;69.282;2023-11-19T00:52:34;52.90;;;17.10;;
78346;SDS011;67803;41.330;69.282;2023-11-19T00:55:05;47.63;;;16.88;;
78346;SDS011;67803;41.330;69.282;2023-11-19T00:57:37;48.45;;;16.38;;
78346;SDS011;67803;41.330;69.282;2023-11-19T01:00:08;42.00;;;16.52;;
78346;SDS011;67803;41.330;69.282;2023-11-19T01:02:48;48.42;;;16.77;;
78346;SDS011;67803;41.330;69.282;2023-11-19T01:05:20;49.45;;;16.90;;
78346;SDS011;67803;41.330;69.282;2023-11-19T01:07:54;51.10;;;16.52;;
78346;SDS011;67803;41.330;69.282;2023-11-19T01:10:25;49.13;;;14.50;;
78346;SDS011;67803;41.330;69.282;2023-11-19T01:12:56;45.50;;;14.50;;
78346;SDS011;67803;41.330;69.282;2023-11-19T01:15:27;42.92;;;14.23;;
78346;SDS011;67803;41.330;69.282;2023-11-19T01:17:58;41.63;;;13.63;;
78346;SDS011;67803;41.330;69.282;2023-11-19T01:20:29;40.17;;;13.88;;
78346;SDS011;67803;41.330;69.282;2023-11-19T01:23:00;41.83;;;13.98;;
78346;SDS011;67803;41.330;69.282;2023-11-19T01:25:31;40.90;;;15.20;;
78346;SDS011;67803;41.330;69.282;2023-11-19T01:28:02;39.58;;;16.90;;
78346;SDS011;67803;41.330;69.282;2023-11-19T01:30:34;43.00;;;17.90;;
78346;SDS011;67803;41.330;69.282;2023-11-19T01:33:05;38.05;;;17.38;;
78346;SDS011;67803;41.330;69.282;2023-11-19T01:35:37;44.92;;;16.98;;
78346;SDS011;67803;41.330;69.282;2023-11-19T01:38:08;40.72;;;16.48;;
78346;SDS011;67803;41.330;69.282;2023-11-19T01:40:39;43.90;;;12.10;;
78346;SDS011;67803;41.330;69.282;2023-11-19T01:43:10;38.70;;;13.73;;
78346;SDS011;67803;41.330;69.282;2023-11-19T01:45:42;37.00;;;11.70;;
78346;SDS011;67803;41.330;69.282;2023-11-19T01:48:13;48.38;;;13.82;;
78346;SDS011;67803;41.330;69.282;2023-11-19T01:50:44;40.30;;;15.25;;
78346;SDS011;67803;41.330;69.282;2023-11-19T01:53:15;32.33;;;13.30;;
78346;SDS011;67803;41.330;69.282;2023-11-19T01:55:47;37.25;;;11.85;;
78346;SDS011;67803;41.330;69.282;2023-11-19T01:58:18;43.83;;;11.70;;
78346;SDS011;67803;41.330;69.282;2023-11-19T02:00:49;37.38;;;12.35;;
78346;SDS011;67803;41.330;69.282;2023-11-19T02:03:21;42.63;;;10.98;;
78346;SDS011;67803;41.330;69.282;2023-11-19T02:05:52;40.47;;;12.43;;
78346;SDS011;67803;41.330;69.282;2023-11-19T02:08:23;36.10;;;12.05;;
78346;SDS011;67803;41.330;69.282;2023-11-19T02:10:54;34.60;;;11.45;;
78346;SDS011;67803;41.330;69.282;2023-11-19T02:13:27;40.45;;;12.57;;
78346;SDS011;67803;41.330;69.282;2023-11-19T02:16:02;36.25;;;12.00;;
78346;SDS011;67803;41.330;69.282;2023-11-19T02:18:33;39.85;;;12.85;;
78346;SDS011;67803;41.330;69.282;2023-11-19T02:21:04;35.67;;;12.10;;
78346;SDS011;67803;41.330;69.282;2023-11-19T02:23:35;38.58;;;11.85;;
78346;SDS011;67803;41.330;69.282;2023-11-19T02:26:14;39.33;;;11.52;;
78346;SDS011;67803;41.330;69.282;2023-11-19T02:28:49;32.40;;;11.63;;
78346;SDS011;67803;41.330;69.282;2023-11-19T02:31:20;33.72;;;10.65;;
78346;SDS011;67803;41.330;69.282;2023-11-19T02:33:53;36.78;;;12.82;;
78346;SDS011;67803;41.330;69.282;2023-11-19T02:36:25;31.45;;;12.68;;
78346;SDS011;67803;41.330;69.282;2023-11-19T02:38:56;33.42;;;11.40;;
78346;SDS011;67803;41.330;69.282;2023-11-19T02:41:27;35.08;;;11.95;;
78346;SDS011;67803;41.330;69.282;2023-11-19T02:43:58;34.40;;;13.68;;
78346;SDS011;67803;41.330;69.282;2023-11-19T02:46:29;33.65;;;12.38;;
78346;SDS011;67803;41.330;69.282;2023-11-19T02:49:01;30.20;;;12.20;;
78346;SDS011;67803;41.330;69.282;2023-11-19T02:52:28;30.80;;;10.02;;
78346;SDS011;67803;41.330;69.282;2023-11-19T02:54:59;31.05;;;9.20;;
78346;SDS011;67803;41.330;69.282;2023-11-19T02:57:31;28.33;;;8.95;;
78346;SDS011;67803;41.330;69.282;2023-11-19T03:00:02;29.25;;;9.43;;
78346;SDS011;67803;41.330;69.282;2023-11-19T03:02:42;27.13;;;8.73;;
78346;SDS011;67803;41.330;69.282;2023-11-19T03:05:17;31.50;;;9.77;;
78346;SDS011;67803;41.330;69.282;2023-11-19T03:07:48;26.83;;;9.48;;
78346;SDS011;67803;41.330;69.282;2023-11-19T03:10:19;34.75;;;9.13;;
78346;SDS011;67803;41.330;69.282;2023-11-19T03:12:50;28.50;;;8.57;;
78346;SDS011;67803;41.330;69.282;2023-11-19T03:15:21;26.05;;;8.32;;
78346;SDS011;67803;41.330;69.282;2023-11-19T03:17:52;32.90;;;9.02;;
78346;SDS011;67803;41.330;69.282;2023-11-19T03:20:23;32.70;;;8.70;;
78346;SDS011;67803;41.330;69.282;2023-11-19T03:25:28;35.55;;;8.68;;
78346;SDS011;67803;41.330;69.282;2023-11-19T03:28:08;24.65;;;8.07;;
78346;SDS011;67803;41.330;69.282;2023-11-19T03:30:39;27.38;;;7.25;;
78346;SDS011;67803;41.330;69.282;2023-11-19T03:33:10;31.02;;;9.15;;
78346;SDS011;67803;41.330;69.282;2023-11-19T03:35:41;39.58;;;8.68;;
78346;SDS011;67803;41.330;69.282;2023-11-19T03:38:12;27.90;;;8.20;;
78346;SDS011;67803;41.330;69.282;2023-11-19T03:40:43;39.95;;;9.90;;
78346;SDS011;67803;41.330;69.282;2023-11-19T03:43:14;37.10;;;10.07;;
78346;SDS011;67803;41.330;69.282;2023-11-19T03:45:46;31.75;;;7.85;;
78346;SDS011;67803;41.330;69.282;2023-11-19T03:48:17;29.88;;;9.18;;
78346;SDS011;67803;41.330;69.282;2023-11-19T03:50:49;34.67;;;9.15;;
78346;SDS011;67803;41.330;69.282;2023-11-19T03:53:20;31.00;;;8.95;;
78346;SDS011;67803;41.330;69.282;2023-11-19T03:55:51;42.90;;;9.85;;
78346;SDS011;67803;41.330;69.282;2023-11-19T03:58:22;38.22;;;9.65;;
78346;SDS011;67803;41.330;69.282;2023-11-19T04:00:53;38.53;;;9.65;;
78346;SDS011;67803;41.330;69.282;2023-11-19T04:03:24;25.63;;;8.98;;
78346;SDS011;67803;41.330;69.282;2023-11-19T04:05:55;35.75;;;8.68;;
78346;SDS011;67803;41.330;69.282;2023-11-19T04:08:26;40.25;;;9.95;;
78346;SDS011;67803;41.330;69.282;2023-11-19T04:10:57;44.83;;;9.23;;
78346;SDS011;67803;41.330;69.282;2023-11-19T04:13:28;32.83;;;8.80;;
78346;SDS011;67803;41.330;69.282;2023-11-19T04:15:59;31.42;;;8.48;;
78346;SDS011;67803;41.330;69.282;2023-11-19T04:18:30;41.97;;;9.32;;
78346;SDS011;67803;41.330;69.282;2023-11-19T04:21:05;29.92;;;8.43;;
78346;SDS011;67803;41.330;69.282;2023-11-19T04:23:36;39.17;;;8.30;;
78346;SDS011;67803;41.330;69.282;2023-11-19T04:26:07;41.47;;;8.27;;
78346;SDS011;67803;41.330;69.282;2023-11-19T04:28:38;34.08;;;9.02;;
78346;SDS011;67803;41.330;69.282;2023-11-19T04:31:09;36.00;;;9.15;;
78346;SDS011;67803;41.330;69.282;2023-11-19T04:33:40;39.83;;;8.63;;
78346;SDS011;67803;41.330;69.282;2023-11-19T04:36:11;41.78;;;10.18;;
78346;SDS011;67803;41.330;69.282;2023-11-19T04:38:44;29.08;;;8.07;;
78346;SDS011;67803;41.330;69.282;2023-11-19T04:41:15;31.83;;;8.30;;
78346;SDS011;67803;41.330;69.282;2023-11-19T04:43:46;37.75;;;8.15;;
78346;SDS011;67803;41.330;69.282;2023-11-19T04:46:17;37.03;;;8.98;;
78346;SDS011;67803;41.330;69.282;2023-11-19T04:48:49;37.92;;;8.30;;
78346;SDS011;67803;41.330;69.282;2023-11-19T04:51:21;45.47;;;9.13;;
78346;SDS011;67803;41.330;69.282;2023-11-19T04:53:52;43.65;;;9.82;;
78346;SDS011;67803;41.330;69.282;2023-11-19T04:56:23;37.42;;;8.52;;
78346;SDS011;67803;41.330;69.282;2023-11-19T04:58:54;37.08;;;9.18;;
78346;SDS011;67803;41.330;69.282;2023-11-19T05:01:25;45.85;;;9.57;;
78346;SDS011;67803;41.330;69.282;2023-11-19T05:03:56;41.40;;;8.57;;
78346;SDS011;67803;41.330;69.282;2023-11-19T05:06:30;41.90;;;10.60;;
78346;SDS011;67803;41.330;69.282;2023-11-19T05:09:02;43.97;;;8.25;;
78346;SDS011;67803;41.330;69.282;2023-11-19T05:11:38;44.72;;;7.80;;
78346;SDS011;67803;41.330;69.282;2023-11-19T05:14:09;36.13;;;8.10;;
78346;SDS011;67803;41.330;69.282;2023-11-19T05:16:40;29.98;;;7.68;;
78346;SDS011;67803;41.330;69.282;2023-11-19T05:19:11;31.52;;;8.00;;
78346;SDS011;67803;41.330;69.282;2023-11-19T05:21:42;26.85;;;8.10;;
78346;SDS011;67803;41.330;69.282;2023-11-19T05:24:14;35.67;;;7.93;;
78346;SDS011;67803;41.330;69.282;2023-11-19T05:26:45;25.90;;;7.10;;
78346;SDS011;67803;41.330;69.282;2023-11-19T05:29:15;27.75;;;6.65;;
78346;SDS011;67803;41.330;69.282;2023-11-19T05:31:46;32.42;;;6.47;;
78346;SDS011;67803;41.330;69.282;2023-11-19T05:34:18;26.02;;;10.63;;
78346;SDS011;67803;41.330;69.282;2023-11-19T05:36:49;30.67;;;7.18;;
78346;SDS011;67803;41.330;69.282;2023-11-19T05:39:20;27.30;;;8.07;;
78346;SDS011;67803;41.330;69.282;2023-11-19T05:41:52;25.52;;;6.15;;
78346;SDS011;67803;41.330;69.282;2023-11-19T05:44:23;26.27;;;7.22;;
78346;SDS011;67803;41.330;69.282;2023-11-19T05:46:54;35.40;;;7.75;;
78346;SDS011;67803;41.330;69.282;2023-11-19T05:49:25;27.08;;;7.50;;
78346;SDS011;67803;41.330;69.282;2023-11-19T05:51:56;37.17;;;7.80;;
78346;SDS011;67803;41.330;69.282;2023-11-19T05:54:27;29.13;;;8.20;;
78346;SDS011;67803;41.330;69.282;2023-11-19T05:56:58;28.92;;;8.55;;
78346;SDS011;67803;41.330;69.282;2023-11-19T05:59:29;30.67;;;8.85;;
78346;SDS011;67803;41.330;69.282;2023-11-19T06:02:00;32.75;;;8.45;;
78346;SDS011;67803;41.330;69.282;2023-11-19T06:04:32;35.00;;;10.77;;
78346;SDS011;67803;41.330;69.282;2023-11-19T06:07:03;38.65;;;11.25;;
78346;SDS011;67803;41.330;69.282;2023-11-19T06:09:35;32.75;;;9.57;;
78346;SDS011;67803;41.330;69.282;2023-11-19T06:12:06;31.55;;;10.27;;
78346;SDS011;67803;41.330;69.282;2023-11-19T06:14:38;30.17;;;9.15;;
78346;SDS011;67803;41.330;69.282;2023-11-19T06:17:09;35.15;;;10.30;;
78346;SDS011;67803;41.330;69.282;2023-11-19T06:19:41;45.00;;;11.02;;
78346;SDS011;67803;41.330;69.282;2023-11-19T06:22:12;38.00;;;11.18;;
78346;SDS011;67803;41.330;69.282;2023-11-19T06:24:43;36.85;;;9.40;;
78346;SDS011;67803;41.330;69.282;2023-11-19T06:27:14;35.45;;;9.80;;
78346;SDS011;67803;41.330;69.282;2023-11-19T06:29:45;41.38;;;11.60;;
78346;SDS011;67803;41.330;69.282;2023-11-19T06:32:16;41.92;;;10.82;;
78346;SDS011;67803;41.330;69.282;2023-11-19T06:34:47;31.42;;;10.77;;
78346;SDS011;67803;41.330;69.282;2023-11-19T06:37:18;37.67;;;10.68;;
78346;SDS011;67803;41.330;69.282;2023-11-19T06:39:49;43.17;;;11.18;;
78346;SDS011;67803;41.330;69.282;2023-11-19T06:42:22;43.95;;;12.45;;
78346;SDS011;67803;41.330;69.282;2023-11-19T06:44:53;43.28;;;10.90;;
78346;SDS011;67803;41.330;69.282;2023-11-19T06:47:27;37.78;;;11.82;;
78346;SDS011;67803;41.330;69.282;2023-11-19T06:49:58;42.97;;;11.48;;
78346;SDS011;67803;41.330;69.282;2023-11-19T06:52:30;33.25;;;10.95;;
78346;SDS011;67803;41.330;69.282;2023-11-19T06:55:01;46.08;;;11.85;;
78346;SDS011;67803;41.330;69.282;2023-11-19T06:57:32;44.42;;;12.57;;
78346;SDS011;67803;41.330;69.282;2023-11-19T07:00:04;41.58;;;10.30;;
78346;SDS011;67803;41.330;69.282;2023-11-19T07:02:36;40.28;;;11.82;;
78346;SDS011;67803;41.330;69.282;2023-11-19T07:05:07;41.03;;;10.68;;
78346;SDS011;67803;41.330;69.282;2023-11-19T07:07:38;43.28;;;13.30;;
78346;SDS011;67803;41.330;69.282;2023-11-19T07:10:10;40.67;;;12.68;;
78346;SDS011;67803;41.330;69.282;2023-11-19T07:12:42;43.13;;;13.00;;
78346;SDS011;67803;41.330;69.282;2023-11-19T07:15:13;50.22;;;12.98;;
78346;SDS011;67803;41.330;69.282;2023-11-19T07:17:44;48.13;;;12.90;;
78346;SDS011;67803;41.330;69.282;2023-11-19T07:20:15;44.47;;;12.10;;
78346;SDS011;67803;41.330;69.282;2023-11-19T07:22:46;46.20;;;12.90;;
78346;SDS011;67803;41.330;69.282;2023-11-19T07:25:17;38.92;;;12.50;;
78346;SDS011;67803;41.330;69.282;2023-11-19T07:27:51;38.60;;;11.50;;
78346;SDS011;67803;41.330;69.282;2023-11-19T07:30:22;37.22;;;11.43;;
78346;SDS011;67803;41.330;69.282;2023-11-19T07:32:54;37.53;;;12.27;;
78346;SDS011;67803;41.330;69.282;2023-11-19T07:35:25;51.78;;;12.30;;
78346;SDS011;67803;41.330;69.282;2023-11-19T07:37:56;47.17;;;14.30;;
78346;SDS011;67803;41.330;69.282;2023-11-19T07:40:28;58.45;;;14.80;;
78346;SDS011;67803;41.330;69.282;2023-11-19T07:42:59;61.60;;;14.63;;
78346;SDS011;67803;41.330;69.282;2023-11-19T07:45:30;53.85;;;16.75;;
78346;SDS011;67803;41.330;69.282;2023-11-19T07:48:01;54.92;;;14.35;;
78346;SDS011;67803;41.330;69.282;2023-11-19T07:50:32;50.25;;;13.13;;
78346;SDS011;67803;41.330;69.282;2023-11-19T07:53:03;49.22;;;14.38;;
78346;SDS011;67803;41.330;69.282;2023-11-19T07:55:35;58.20;;;15.52;;
78346;SDS011;67803;41.330;69.282;2023-11-19T07:58:06;58.85;;;14.35;;
78346;SDS011;67803;41.330;69.282;2023-11-19T08:00:37;53.95;;;14.95;;
78346;SDS011;67803;41.330;69.282;2023-11-19T08:03:09;57.28;;;14.88;;
78346;SDS011;67803;41.330;69.282;2023-11-19T08:05:40;50.83;;;15.13;;
78346;SDS011;67803;41.330;69.282;2023-11-19T08:08:12;50.10;;;15.63;;
78346;SDS011;67803;41.330;69.282;2023-11-19T08:10:43;54.60;;;15.38;;
78346;SDS011;67803;41.330;69.282;2023-11-19T08:13:14;53.58;;;15.65;;
78346;SDS011;67803;41.330;69.282;2023-11-19T08:15:46;63.70;;;18.15;;
78346;SDS011;67803;41.330;69.282;2023-11-19T08:18:17;55.45;;;16.88;;
78346;SDS011;67803;41.330;69.282;2023-11-19T08:20:48;63.45;;;17.92;;
78346;SDS011;67803;41.330;69.282;2023-11-19T08:23:23;64.78;;;17.20;;
78346;SDS011;67803;41.330;69.282;2023-11-19T08:25:56;54.92;;;14.98;;
78346;SDS011;67803;41.330;69.282;2023-11-19T08:28:27;60.42;;;17.40;;
78346;SDS011;67803;41.330;69.282;2023-11-19T08:30:58;61.47;;;18.45;;
78346;SDS011;67803;41.330;69.282;2023-11-19T08:33:29;57.20;;;17.05;;
78346;SDS011;67803;41.330;69.282;2023-11-19T08:36:01;66.18;;;19.75;;
78346;SDS011;67803;41.330;69.282;2023-11-19T08:38:34;53.67;;;18.05;;
78346;SDS011;67803;41.330;69.282;2023-11-19T08:41:07;55.22;;;18.95;;
78346;SDS011;67803;41.330;69.282;2023-11-19T08:43:38;58.80;;;21.38;;
78346;SDS011;67803;41.330;69.282;2023-11-19T08:46:11;63.20;;;22.90;;
78346;SDS011;67803;41.330;69.282;2023-11-19T08:48:43;62.85;;;24.00;;
78346;SDS011;67803;41.330;69.282;2023-11-19T08:51:14;59.15;;;21.80;;
78346;SDS011;67803;41.330;69.282;2023-11-19T08:56:34;68.55;;;23.60;;
78346;SDS011;67803;41.330;69.282;2023-11-19T08:59:05;60.03;;;22.02;;
78346;SDS011;67803;41.330;69.282;2023-11-19T09:01:37;55.05;;;23.08;;
78346;SDS011;67803;41.330;69.282;2023-11-19T09:04:08;67.32;;;22.48;;
78346;SDS011;67803;41.330;69.282;2023-11-19T09:06:39;65.00;;;22.00;;
78346;SDS011;67803;41.330;69.282;2023-11-19T09:09:10;64.78;;;22.35;;
78346;SDS011;67803;41.330;69.282;2023-11-19T09:11:41;62.88;;;23.35;;
78346;SDS011;67803;41.330;69.282;2023-11-19T09:14:13;61.70;;;21.95;;
78346;SDS011;67803;41.330;69.282;2023-11-19T09:16:44;64.68;;;24.05;;
78346;SDS011;67803;41.330;69.282;2023-11-19T09:19:15;69.82;;;21.60;;
78346;SDS011;67803;41.330;69.282;2023-11-19T09:21:47;59.22;;;22.05;;
78346;SDS011;67803;41.330;69.282;2023-11-19T09:24:19;68.93;;;22.73;;
78346;SDS011;67803;41.330;69.282;2023-11-19T09:26:50;64.97;;;22.17;;
78346;SDS011;67803;41.330;69.282;2023-11-19T09:29:21;66.35;;;22.58;;
78346;SDS011;67803;41.330;69.282;2023-11-19T09:31:53;60.50;;;22.00;;
78346;SDS011;67803;41.330;69.282;2023-11-19T09:34:24;68.53;;;23.05;;
78346;SDS011;67803;41.330;69.282;2023-11-19T09:36:55;71.07;;;23.15;;
78346;SDS011;67803;41.330;69.282;2023-11-19T09:39:27;62.97;;;21.48;;
78346;SDS011;67803;41.330;69.282;2023-11-19T09:41:58;60.80;;;23.20;;
78346;SDS011;67803;41.330;69.282;2023-11-19T09:44:29;67.50;;;22.85;;
78346;SDS011;67803;41.330;69.282;2023-11-19T09:47:01;63.08;;;24.30;;
78346;SDS011;67803;41.330;69.282;2023-11-19T09:49:32;61.72;;;22.92;;
78346;SDS011;67803;41.330;69.282;2023-11-19T09:52:04;64.57;;;24.30;;
78346;SDS011;67803;41.330;69.282;2023-11-19T09:54:36;63.30;;;23.27;;
78346;SDS011;67803;41.330;69.282;2023-11-19T09:57:07;74.30;;;25.00;;
78346;SDS011;67803;41.330;69.282;2023-11-19T09:59:39;57.88;;;21.67;;
78346;SDS011;67803;41.330;69.282;2023-11-19T10:02:11;67.45;;;23.52;;
78346;SDS011;67803;41.330;69.282;2023-11-19T10:04:42;62.03;;;21.65;;
78346;SDS011;67803;41.330;69.282;2023-11-19T10:07:14;61.72;;;21.70;;
78346;SDS011;67803;41.330;69.282;2023-11-19T10:09:46;70.75;;;24.23;;
78346;SDS011;67803;41.330;69.282;2023-11-19T10:12:18;60.28;;;23.05;;
78346;SDS011;67803;41.330;69.282;2023-11-19T10:14:49;62.72;;;25.00;;
78346;SDS011;67803;41.330;69.282;2023-11-19T10:17:21;59.58;;;23.42;;
78346;SDS011;67803;41.330;69.282;2023-11-19T10:19:52;55.28;;;23.13;;
78346;SDS011;67803;41.330;69.282;2023-11-19T10:22:24;70.20;;;23.35;;
78346;SDS011;67803;41.330;69.282;2023-11-19T10:24:57;57.15;;;22.60;;
78346;SDS011;67803;41.330;69.282;2023-11-19T10:27:28;62.00;;;22.27;;
78346;SDS011;67803;41.330;69.282;2023-11-19T10:29:59;72.32;;;25.08;;
78346;SDS011;67803;41.330;69.282;2023-11-19T10:32:30;70.15;;;24.58;;
78346;SDS011;67803;41.330;69.282;2023-11-19T10:35:04;59.17;;;24.13;;
78346;SDS011;67803;41.330;69.282;2023-11-19T10:37:36;60.30;;;23.92;;
78346;SDS011;67803;41.330;69.282;2023-11-19T10:40:08;64.75;;;24.50;;
78346;SDS011;67803;41.330;69.282;2023-11-19T10:42:41;59.22;;;22.98;;
78346;SDS011;67803;41.330;69.282;2023-11-19T10:45:22;62.85;;;25.77;;
78346;SDS011;67803;41.330;69.282;2023-11-19T10:47:54;67.40;;;25.17;;
78346;SDS011;67803;41.330;69.282;2023-11-19T10:50:26;69.03;;;26.58;;
78346;SDS011;67803;41.330;69.282;2023-11-19T10:52:58;61.05;;;25.70;;
78346;SDS011;67803;41.330;69.282;2023-11-19T10:55:29;68.57;;;24.02;;
78346;SDS011;67803;41.330;69.282;2023-11-19T10:58:10;65.70;;;25.17;;
78346;SDS011;67803;41.330;69.282;2023-11-19T11:00:44;54.60;;;24.75;;
78346;SDS011;67803;41.330;69.282;2023-11-19T11:03:20;62.85;;;24.83;;
78346;SDS011;67803;41.330;69.282;2023-11-19T11:05:51;57.22;;;23.10;;
78346;SDS011;67803;41.330;69.282;2023-11-19T11:08:22;60.13;;;23.42;;
78346;SDS011;67803;41.330;69.282;2023-11-19T11:10:54;54.08;;;21.52;;
78346;SDS011;67803;41.330;69.282;2023-11-19T11:13:26;48.67;;;23.80;;
78346;SDS011;67803;41.330;69.282;2023-11-19T11:18:30;57.25;;;20.95;;
78346;SDS011;67803;41.330;69.282;2023-11-19T11:21:04;51.10;;;21.73;;
78346;SDS011;67803;41.330;69.282;2023-11-19T11:23:46;58.60;;;22.35;;
78346;SDS011;67803;41.330;69.282;2023-11-19T11:29:37;57.72;;;21.45;;
78346;SDS011;67803;41.330;69.282;2023-11-19T11:32:15;53.25;;;18.70;;
78346;SDS011;67803;41.330;69.282;2023-11-19T11:40:02;42.17;;;14.75;;
78346;SDS011;67803;41.330;69.282;2023-11-19T11:42:40;53.65;;;14.98;;
78346;SDS011;67803;41.330;69.282;2023-11-19T11:45:13;50.42;;;14.93;;
78346;SDS011;67803;41.330;69.282;2023-11-19T11:50:18;48.92;;;14.60;;
78346;SDS011;67803;41.330;69.282;2023-11-19T11:55:37;41.05;;;10.93;;
78346;SDS011;67803;41.330;69.282;2023-11-19T11:58:08;35.10;;;9.40;;
78346;SDS011;67803;41.330;69.282;2023-11-19T12:00:40;37.13;;;10.57;;
78346;SDS011;67803;41.330;69.282;2023-11-19T12:03:12;35.08;;;10.32;;
78346;SDS011;67803;41.330;69.282;2023-11-19T12:05:45;36.63;;;10.23;;
78346;SDS011;67803;41.330;69.282;2023-11-19T12:08:20;34.58;;;8.77;;
78346;SDS011;67803;41.330;69.282;2023-11-19T12:10:55;38.47;;;9.43;;
78346;SDS011;67803;41.330;69.282;2023-11-19T12:13:42;41.75;;;9.82;;
78346;SDS011;67803;41.330;69.282;2023-11-19T12:16:17;39.80;;;9.77;;
78346;SDS011;67803;41.330;69.282;2023-11-19T12:18:48;33.95;;;8.75;;
78346;SDS011;67803;41.330;69.282;2023-11-19T12:21:29;26.17;;;8.57;;
78346;SDS011;67803;41.330;69.282;2023-11-19T12:24:03;25.25;;;8.60;;
78346;SDS011;67803;41.330;69.282;2023-11-19T12:26:38;34.45;;;8.70;;
78346;SDS011;67803;41.330;69.282;2023-11-19T12:29:09;26.55;;;7.07;;
78346;SDS011;67803;41.330;69.282;2023-11-19T12:31:43;34.70;;;8.07;;
78346;SDS011;67803;41.330;69.282;2023-11-19T12:34:15;23.20;;;7.32;;
78346;SDS011;67803;41.330;69.282;2023-11-19T12:36:47;30.88;;;7.45;;
78346;SDS011;67803;41.330;69.282;2023-11-19T12:39:18;27.98;;;8.93;;
78346;SDS011;67803;41.330;69.282;2023-11-19T12:41:50;25.83;;;8.32;;
78346;SDS011;67803;41.330;69.282;2023-11-19T12:44:22;31.92;;;8.85;;
78346;SDS011;67803;41.330;69.282;2023-11-19T12:47:06;32.15;;;8.85;;
78346;SDS011;67803;41.330;69.282;2023-11-19T12:49:37;38.17;;;9.98;;
78346;SDS011;67803;41.330;69.282;2023-11-19T12:52:12;41.83;;;11.80;;
78346;SDS011;67803;41.330;69.282;2023-11-19T12:54:43;40.95;;;12.48;;
78346;SDS011;67803;41.330;69.282;2023-11-19T12:57:15;38.63;;;11.52;;
78346;SDS011;67803;41.330;69.282;2023-11-19T12:59:56;37.03;;;11.95;;
78346;SDS011;67803;41.330;69.282;2023-11-19T13:05:26;32.42;;;11.90;;
78346;SDS011;67803;41.330;69.282;2023-11-19T13:07:58;37.65;;;12.77;;
78346;SDS011;67803;41.330;69.282;2023-11-19T13:10:31;39.65;;;12.52;;
78346;SDS011;67803;41.330;69.282;2023-11-19T13:13:06;36.35;;;12.32;;
78346;SDS011;67803;41.330;69.282;2023-11-19T13:15:38;33.38;;;11.82;;
78346;SDS011;67803;41.330;69.282;2023-11-19T13:18:10;43.22;;;14.82;;
78346;SDS011;67803;41.330;69.282;2023-11-19T13:20:42;36.72;;;13.65;;
78346;SDS011;67803;41.330;69.282;2023-11-19T13:23:13;43.50;;;15.35;;
78346;SDS011;67803;41.330;69.282;2023-11-19T13:25:45;46.72;;;14.48;;
78346;SDS011;67803;41.330;69.282;2023-11-19T13:28:16;50.35;;;15.90;;
78346;SDS011;67803;41.330;69.282;2023-11-19T13:30:50;52.60;;;15.90;;
78346;SDS011;67803;41.330;69.282;2023-11-19T13:33:21;51.22;;;17.00;;
78346;SDS011;67803;41.330;69.282;2023-11-19T13:35:53;47.20;;;14.10;;
78346;SDS011;67803;41.330;69.282;2023-11-19T13:38:24;42.08;;;13.98;;
78346;SDS011;67803;41.330;69.282;2023-11-19T13:40:56;54.90;;;15.35;;
78346;SDS011;67803;41.330;69.282;2023-11-19T13:43:27;52.20;;;16.92;;
78346;SDS011;67803;41.330;69.282;2023-11-19T13:45:58;52.83;;;16.25;;
78346;SDS011;67803;41.330;69.282;2023-11-19T13:48:29;44.80;;;14.68;;
78346;SDS011;67803;41.330;69.282;2023-11-19T13:51:01;52.60;;;17.48;;
78346;SDS011;67803;41.330;69.282;2023-11-19T13:53:32;42.15;;;16.55;;
78346;SDS011;67803;41.330;69.282;2023-11-19T13:56:04;46.92;;;17.67;;
78346;SDS011;67803;41.330;69.282;2023-11-19T13:58:36;57.47;;;17.15;;
78346;SDS011;67803;41.330;69.282;2023-11-19T14:01:08;54.22;;;16.75;;
78346;SDS011;67803;41.330;69.282;2023-11-19T14:03:43;53.40;;;17.48;;
78346;SDS011;67803;41.330;69.282;2023-11-19T14:06:14;56.63;;;19.00;;
78346;SDS011;67803;41.330;69.282;2023-11-19T14:08:49;60.05;;;18.00;;
78346;SDS011;67803;41.330;69.282;2023-11-19T14:11:24;52.70;;;18.20;;
78346;SDS011;67803;41.330;69.282;2023-11-19T14:13:55;54.50;;;19.27;;
78346;SDS011;67803;41.330;69.282;2023-11-19T14:16:26;60.15;;;20.23;;
78346;SDS011;67803;41.330;69.282;2023-11-19T14:18:59;58.65;;;18.80;;
78346;SDS011;67803;41.330;69.282;2023-11-19T14:21:30;52.30;;;18.25;;
78346;SDS011;67803;41.330;69.282;2023-11-19T14:24:02;56.20;;;19.45;;
78346;SDS011;67803;41.330;69.282;2023-11-19T14:26:33;61.50;;;18.48;;
78346;SDS011;67803;41.330;69.282;2023-11-19T14:29:04;73.30;;;22.52;;
78346;SDS011;67803;41.330;69.282;2023-11-19T14:31:36;57.47;;;20.15;;
78346;SDS011;67803;41.330;69.282;2023-11-19T14:34:07;63.53;;;19.88;;
78346;SDS011;67803;41.330;69.282;2023-11-19T14:36:38;53.17;;;18.15;;
78346;SDS011;67803;41.330;69.282;2023-11-19T14:39:09;63.42;;;17.85;;
78346;SDS011;67803;41.330;69.282;2023-11-19T14:41:42;55.35;;;16.70;;
78346;SDS011;67803;41.330;69.282;2023-11-19T14:44:13;59.78;;;18.98;;
78346;SDS011;67803;41.330;69.282;2023-11-19T14:46:45;54.85;;;18.27;;
78346;SDS011;67803;41.330;69.282;2023-11-19T14:49:16;67.88;;;19.08;;
78346;SDS011;67803;41.330;69.282;2023-11-19T14:51:48;62.70;;;17.85;;
78346;SDS011;67803;41.330;69.282;2023-11-19T14:54:19;56.25;;;18.45;;
78346;SDS011;67803;41.330;69.282;2023-11-19T14:56:50;66.45;;;20.38;;
78346;SDS011;67803;41.330;69.282;2023-11-19T14:59:22;59.63;;;19.08;;
78346;SDS011;67803;41.330;69.282;2023-11-19T15:01:53;57.33;;;20.25;;
78346;SDS011;67803;41.330;69.282;2023-11-19T15:04:25;55.35;;;19.25;;